sensor_id;sensor_type;location;lat;lon;timestamp;P1;durP1;ratioP1;P2;durP2;ratioP2
74939;SDS011;63505;45.226;37.908;2023-01-13T00:00:21;7.15;;;4.45;;
74939;SDS011;63505;45.226;37.908;2023-01-13T00:02:47;6.65;;;4.15;;
74939;SDS011;63505;45.226;37.908;2023-01-13T00:05:12;6.75;;;3.38;;
74939;SDS011;63505;45.226;37.908;2023-01-13T00:07:38;7.20;;;3.72;;
74939;SDS011;63505;45.226;37.908;2023-01-13T00:10:05;8.05;;;3.50;;
74939;SDS011;63505;45.226;37.908;2023-01-13T00:12:33;11.68;;;4.70;;
74939;SDS011;63505;45.226;37.908;2023-01-13T00:14:59;6.70;;;4.03;;
74939;SDS011;63505;45.226;37.908;2023-01-13T00:17:25;8.60;;;3.53;;
74939;SDS011;63505;45.226;37.908;2023-01-13T00:19:50;8.23;;;4.35;;
74939;SDS011;63505;45.226;37.908;2023-01-13T00:22:17;5.93;;;3.80;;
74939;SDS011;63505;45.226;37.908;2023-01-13T00:24:42;11.38;;;3.88;;
74939;SDS011;63505;45.226;37.908;2023-01-13T00:27:08;9.50;;;3.78;;
74939;SDS011;63505;45.226;37.908;2023-01-13T00:29:34;5.15;;;3.13;;
74939;SDS011;63505;45.226;37.908;2023-01-13T00:32:00;8.73;;;4.30;;
74939;SDS011;63505;45.226;37.908;2023-01-13T00:34:26;6.82;;;3.10;;
74939;SDS011;63505;45.226;37.908;2023-01-13T00:36:52;8.82;;;3.95;;
74939;SDS011;63505;45.226;37.908;2023-01-13T00:39:18;4.68;;;3.42;;
74939;SDS011;63505;45.226;37.908;2023-01-13T00:41:44;17.00;;;4.68;;
74939;SDS011;63505;45.226;37.908;2023-01-13T00:44:28;15.45;;;3.50;;
74939;SDS011;63505;45.226;37.908;2023-01-13T00:46:54;6.18;;;4.22;;
74939;SDS011;63505;45.226;37.908;2023-01-13T00:49:20;9.43;;;4.93;;
74939;SDS011;63505;45.226;37.908;2023-01-13T00:51:46;7.05;;;4.57;;
74939;SDS011;63505;45.226;37.908;2023-01-13T00:54:12;7.07;;;3.65;;
74939;SDS011;63505;45.226;37.908;2023-01-13T00:56:38;9.35;;;3.78;;
74939;SDS011;63505;45.226;37.908;2023-01-13T00:59:04;7.85;;;3.83;;
74939;SDS011;63505;45.226;37.908;2023-01-13T01:01:29;3.67;;;3.05;;
74939;SDS011;63505;45.226;37.908;2023-01-13T01:03:55;7.38;;;3.30;;
74939;SDS011;63505;45.226;37.908;2023-01-13T01:06:23;5.03;;;3.58;;
74939;SDS011;63505;45.226;37.908;2023-01-13T01:08:51;7.20;;;3.88;;
74939;SDS011;63505;45.226;37.908;2023-01-13T01:11:18;5.13;;;2.60;;
74939;SDS011;63505;45.226;37.908;2023-01-13T01:13:46;8.63;;;3.92;;
74939;SDS011;63505;45.226;37.908;2023-01-13T01:16:14;2.53;;;1.48;;
74939;SDS011;63505;45.226;37.908;2023-01-13T01:18:42;5.35;;;3.38;;
74939;SDS011;63505;45.226;37.908;2023-01-13T01:21:09;3.85;;;3.22;;
74939;SDS011;63505;45.226;37.908;2023-01-13T01:23:36;4.47;;;2.83;;
74939;SDS011;63505;45.226;37.908;2023-01-13T01:26:08;5.20;;;2.78;;
74939;SDS011;63505;45.226;37.908;2023-01-13T01:28:39;4.53;;;2.50;;
74939;SDS011;63505;45.226;37.908;2023-01-13T01:31:09;9.07;;;3.03;;
74939;SDS011;63505;45.226;37.908;2023-01-13T01:33:38;5.03;;;2.78;;
74939;SDS011;63505;45.226;37.908;2023-01-13T01:36:05;5.50;;;3.20;;
74939;SDS011;63505;45.226;37.908;2023-01-13T01:38:32;6.63;;;3.63;;
74939;SDS011;63505;45.226;37.908;2023-01-13T01:40:58;5.43;;;3.55;;
74939;SDS011;63505;45.226;37.908;2023-01-13T01:46:31;4.57;;;2.58;;
74939;SDS011;63505;45.226;37.908;2023-01-13T01:51:32;3.50;;;2.92;;
74939;SDS011;63505;45.226;37.908;2023-01-13T01:54:01;9.00;;;5.15;;
74939;SDS011;63505;45.226;37.908;2023-01-13T01:56:32;11.35;;;3.83;;
74939;SDS011;63505;45.226;37.908;2023-01-13T01:58:59;7.05;;;3.05;;
74939;SDS011;63505;45.226;37.908;2023-01-13T02:01:25;6.38;;;3.13;;
74939;SDS011;63505;45.226;37.908;2023-01-13T02:03:56;6.00;;;2.58;;
74939;SDS011;63505;45.226;37.908;2023-01-13T02:06:28;7.50;;;4.25;;
74939;SDS011;63505;45.226;37.908;2023-01-13T02:08:54;13.82;;;3.10;;
74939;SDS011;63505;45.226;37.908;2023-01-13T02:11:25;5.82;;;3.00;;
74939;SDS011;63505;45.226;37.908;2023-01-13T02:14:18;6.40;;;2.67;;
74939;SDS011;63505;45.226;37.908;2023-01-13T02:38:35;6.28;;;3.00;;
74939;SDS011;63505;45.226;37.908;2023-01-13T02:41:14;4.60;;;3.00;;
74939;SDS011;63505;45.226;37.908;2023-01-13T02:44:07;5.85;;;2.33;;
74939;SDS011;63505;45.226;37.908;2023-01-13T02:49:08;5.03;;;2.88;;
74939;SDS011;63505;45.226;37.908;2023-01-13T02:51:39;3.63;;;3.20;;
74939;SDS011;63505;45.226;37.908;2023-01-13T02:54:11;7.47;;;3.20;;
74939;SDS011;63505;45.226;37.908;2023-01-13T02:56:40;5.03;;;2.60;;
74939;SDS011;63505;45.226;37.908;2023-01-13T02:59:09;5.40;;;2.42;;
74939;SDS011;63505;45.226;37.908;2023-01-13T03:01:36;7.88;;;3.47;;
74939;SDS011;63505;45.226;37.908;2023-01-13T03:10:00;6.13;;;3.42;;
74939;SDS011;63505;45.226;37.908;2023-01-13T03:12:53;4.15;;;2.90;;
74939;SDS011;63505;45.226;37.908;2023-01-13T03:20:50;3.38;;;2.70;;
74939;SDS011;63505;45.226;37.908;2023-01-13T03:23:46;5.20;;;2.03;;
74939;SDS011;63505;45.226;37.908;2023-01-13T03:26:38;5.40;;;2.38;;
74939;SDS011;63505;45.226;37.908;2023-01-13T03:31:54;3.38;;;2.10;;
74939;SDS011;63505;45.226;37.908;2023-01-13T03:34:29;3.03;;;2.47;;
74939;SDS011;63505;45.226;37.908;2023-01-13T03:37:03;5.97;;;2.70;;
74939;SDS011;63505;45.226;37.908;2023-01-13T03:39:33;14.57;;;3.25;;
74939;SDS011;63505;45.226;37.908;2023-01-13T03:42:08;4.07;;;2.33;;
74939;SDS011;63505;45.226;37.908;2023-01-13T03:44:40;15.13;;;4.13;;
74939;SDS011;63505;45.226;37.908;2023-01-13T03:52:57;2.17;;;1.63;;
74939;SDS011;63505;45.226;37.908;2023-01-13T03:55:43;15.93;;;3.80;;
74939;SDS011;63505;45.226;37.908;2023-01-13T03:58:25;3.85;;;2.40;;
74939;SDS011;63505;45.226;37.908;2023-01-13T04:00:58;6.63;;;3.63;;
74939;SDS011;63505;45.226;37.908;2023-01-13T04:03:35;7.28;;;3.92;;
74939;SDS011;63505;45.226;37.908;2023-01-13T04:06:08;3.47;;;2.42;;
74939;SDS011;63505;45.226;37.908;2023-01-13T04:08:43;4.25;;;2.38;;
74939;SDS011;63505;45.226;37.908;2023-01-13T04:11:18;4.35;;;1.92;;
74939;SDS011;63505;45.226;37.908;2023-01-13T04:13:54;4.90;;;2.05;;
74939;SDS011;63505;45.226;37.908;2023-01-13T04:16:21;3.50;;;2.55;;
74939;SDS011;63505;45.226;37.908;2023-01-13T04:18:47;4.47;;;2.58;;
74939;SDS011;63505;45.226;37.908;2023-01-13T04:21:14;4.55;;;2.33;;
74939;SDS011;63505;45.226;37.908;2023-01-13T04:23:40;1.80;;;1.35;;
74939;SDS011;63505;45.226;37.908;2023-01-13T04:26:05;6.72;;;3.35;;
74939;SDS011;63505;45.226;37.908;2023-01-13T04:28:31;2.38;;;1.83;;
74939;SDS011;63505;45.226;37.908;2023-01-13T04:30:59;3.08;;;2.22;;
74939;SDS011;63505;45.226;37.908;2023-01-13T04:33:25;6.97;;;2.88;;
74939;SDS011;63505;45.226;37.908;2023-01-13T04:35:51;3.92;;;2.97;;
74939;SDS011;63505;45.226;37.908;2023-01-13T04:38:17;4.18;;;2.25;;
74939;SDS011;63505;45.226;37.908;2023-01-13T04:40:44;30.75;;;3.83;;
74939;SDS011;63505;45.226;37.908;2023-01-13T04:43:11;8.65;;;2.33;;
74939;SDS011;63505;45.226;37.908;2023-01-13T04:45:37;3.10;;;2.08;;
74939;SDS011;63505;45.226;37.908;2023-01-13T04:48:03;5.38;;;2.60;;
74939;SDS011;63505;45.226;37.908;2023-01-13T04:50:29;11.82;;;3.10;;
74939;SDS011;63505;45.226;37.908;2023-01-13T04:52:55;4.72;;;1.65;;
74939;SDS011;63505;45.226;37.908;2023-01-13T04:55:22;3.03;;;2.10;;
74939;SDS011;63505;45.226;37.908;2023-01-13T04:57:49;3.28;;;1.55;;
74939;SDS011;63505;45.226;37.908;2023-01-13T05:00:15;2.47;;;1.70;;
74939;SDS011;63505;45.226;37.908;2023-01-13T05:02:43;3.47;;;2.10;;
74939;SDS011;63505;45.226;37.908;2023-01-13T05:05:09;10.80;;;3.70;;
74939;SDS011;63505;45.226;37.908;2023-01-13T05:07:35;3.28;;;2.15;;
74939;SDS011;63505;45.226;37.908;2023-01-13T05:10:01;7.70;;;1.55;;
74939;SDS011;63505;45.226;37.908;2023-01-13T05:12:27;4.97;;;2.15;;
74939;SDS011;63505;45.226;37.908;2023-01-13T05:15:11;3.45;;;2.17;;
74939;SDS011;63505;45.226;37.908;2023-01-13T05:17:56;2.95;;;2.13;;
74939;SDS011;63505;45.226;37.908;2023-01-13T05:20:23;1.92;;;1.05;;
74939;SDS011;63505;45.226;37.908;2023-01-13T05:22:49;2.20;;;1.45;;
74939;SDS011;63505;45.226;37.908;2023-01-13T05:25:36;6.32;;;2.55;;
74939;SDS011;63505;45.226;37.908;2023-01-13T05:28:04;2.40;;;1.27;;
74939;SDS011;63505;45.226;37.908;2023-01-13T05:30:31;2.67;;;1.98;;
74939;SDS011;63505;45.226;37.908;2023-01-13T05:33:01;5.45;;;3.72;;
74939;SDS011;63505;45.226;37.908;2023-01-13T05:35:27;2.58;;;2.10;;
74939;SDS011;63505;45.226;37.908;2023-01-13T05:37:54;4.10;;;2.47;;
74939;SDS011;63505;45.226;37.908;2023-01-13T05:40:20;13.40;;;3.63;;
74939;SDS011;63505;45.226;37.908;2023-01-13T05:43:08;6.75;;;2.13;;
74939;SDS011;63505;45.226;37.908;2023-01-13T05:48:11;5.88;;;1.98;;
74939;SDS011;63505;45.226;37.908;2023-01-13T05:50:37;3.85;;;2.15;;
74939;SDS011;63505;45.226;37.908;2023-01-13T05:53:04;3.33;;;1.20;;
74939;SDS011;63505;45.226;37.908;2023-01-13T05:55:30;4.88;;;2.80;;
74939;SDS011;63505;45.226;37.908;2023-01-13T05:57:56;5.20;;;2.53;;
74939;SDS011;63505;45.226;37.908;2023-01-13T06:00:22;4.88;;;3.28;;
74939;SDS011;63505;45.226;37.908;2023-01-13T06:02:47;3.72;;;2.00;;
74939;SDS011;63505;45.226;37.908;2023-01-13T06:05:14;8.68;;;2.88;;
74939;SDS011;63505;45.226;37.908;2023-01-13T06:07:40;8.10;;;2.92;;
74939;SDS011;63505;45.226;37.908;2023-01-13T06:10:06;5.90;;;2.55;;
74939;SDS011;63505;45.226;37.908;2023-01-13T06:12:32;11.95;;;2.38;;
74939;SDS011;63505;45.226;37.908;2023-01-13T06:14:58;3.50;;;2.22;;
74939;SDS011;63505;45.226;37.908;2023-01-13T06:17:24;3.53;;;2.58;;
74939;SDS011;63505;45.226;37.908;2023-01-13T06:19:50;5.57;;;1.98;;
74939;SDS011;63505;45.226;37.908;2023-01-13T06:22:16;21.48;;;3.67;;
74939;SDS011;63505;45.226;37.908;2023-01-13T06:24:56;8.38;;;3.20;;
74939;SDS011;63505;45.226;37.908;2023-01-13T06:27:23;2.03;;;1.35;;
74939;SDS011;63505;45.226;37.908;2023-01-13T06:29:49;3.17;;;2.38;;
74939;SDS011;63505;45.226;37.908;2023-01-13T06:32:16;6.47;;;2.30;;
74939;SDS011;63505;45.226;37.908;2023-01-13T06:34:46;7.50;;;3.78;;
74939;SDS011;63505;45.226;37.908;2023-01-13T06:39:49;9.63;;;2.00;;
74939;SDS011;63505;45.226;37.908;2023-01-13T06:42:17;5.78;;;3.42;;
74939;SDS011;63505;45.226;37.908;2023-01-13T06:45:01;2.08;;;1.33;;
74939;SDS011;63505;45.226;37.908;2023-01-13T06:47:27;5.18;;;2.90;;
74939;SDS011;63505;45.226;37.908;2023-01-13T06:49:53;5.30;;;2.15;;
74939;SDS011;63505;45.226;37.908;2023-01-13T06:52:19;5.95;;;3.90;;
74939;SDS011;63505;45.226;37.908;2023-01-13T06:54:45;8.07;;;4.47;;
74939;SDS011;63505;45.226;37.908;2023-01-13T06:57:11;4.28;;;3.17;;
74939;SDS011;63505;45.226;37.908;2023-01-13T06:59:37;7.72;;;4.03;;
74939;SDS011;63505;45.226;37.908;2023-01-13T07:02:03;12.95;;;3.67;;
74939;SDS011;63505;45.226;37.908;2023-01-13T07:04:29;8.23;;;4.85;;
74939;SDS011;63505;45.226;37.908;2023-01-13T07:06:55;4.78;;;3.10;;
74939;SDS011;63505;45.226;37.908;2023-01-13T07:09:21;9.02;;;4.72;;
74939;SDS011;63505;45.226;37.908;2023-01-13T07:11:47;10.32;;;4.93;;
74939;SDS011;63505;45.226;37.908;2023-01-13T07:14:13;7.60;;;5.07;;
74939;SDS011;63505;45.226;37.908;2023-01-13T07:16:57;11.70;;;5.40;;
74939;SDS011;63505;45.226;37.908;2023-01-13T07:19:23;2.72;;;2.05;;
74939;SDS011;63505;45.226;37.908;2023-01-13T07:21:49;6.53;;;4.93;;
74939;SDS011;63505;45.226;37.908;2023-01-13T07:24:16;9.85;;;4.82;;
74939;SDS011;63505;45.226;37.908;2023-01-13T07:26:43;9.65;;;4.53;;
74939;SDS011;63505;45.226;37.908;2023-01-13T07:29:09;5.43;;;3.40;;
74939;SDS011;63505;45.226;37.908;2023-01-13T07:31:35;52.20;;;23.35;;
74939;SDS011;63505;45.226;37.908;2023-01-13T07:34:01;22.20;;;9.38;;
74939;SDS011;63505;45.226;37.908;2023-01-13T07:36:27;12.68;;;7.07;;
74939;SDS011;63505;45.226;37.908;2023-01-13T07:38:53;16.75;;;7.88;;
74939;SDS011;63505;45.226;37.908;2023-01-13T07:41:19;6.90;;;4.22;;
74939;SDS011;63505;45.226;37.908;2023-01-13T07:44:03;10.13;;;6.05;;
74939;SDS011;63505;45.226;37.908;2023-01-13T07:46:30;10.52;;;7.30;;
74939;SDS011;63505;45.226;37.908;2023-01-13T07:48:57;15.40;;;6.65;;
74939;SDS011;63505;45.226;37.908;2023-01-13T07:51:22;16.05;;;6.70;;
74939;SDS011;63505;45.226;37.908;2023-01-13T07:53:48;19.52;;;7.18;;
74939;SDS011;63505;45.226;37.908;2023-01-13T07:56:14;17.65;;;8.02;;
74939;SDS011;63505;45.226;37.908;2023-01-13T07:58:40;13.20;;;5.28;;
74939;SDS011;63505;45.226;37.908;2023-01-13T08:01:07;8.75;;;4.25;;
74939;SDS011;63505;45.226;37.908;2023-01-13T08:03:34;14.00;;;6.80;;
74939;SDS011;63505;45.226;37.908;2023-01-13T08:06:00;17.05;;;6.93;;
74939;SDS011;63505;45.226;37.908;2023-01-13T08:08:26;10.23;;;4.57;;
74939;SDS011;63505;45.226;37.908;2023-01-13T08:10:52;16.17;;;7.80;;
74939;SDS011;63505;45.226;37.908;2023-01-13T08:13:18;8.63;;;4.63;;
74939;SDS011;63505;45.226;37.908;2023-01-13T08:15:49;5.75;;;3.03;;
74939;SDS011;63505;45.226;37.908;2023-01-13T08:18:17;25.08;;;9.18;;
74939;SDS011;63505;45.226;37.908;2023-01-13T08:20:46;17.80;;;9.82;;
74939;SDS011;63505;45.226;37.908;2023-01-13T08:23:13;9.98;;;5.80;;
74939;SDS011;63505;45.226;37.908;2023-01-13T08:25:39;20.38;;;8.93;;
74939;SDS011;63505;45.226;37.908;2023-01-13T08:28:05;17.25;;;9.38;;
74939;SDS011;63505;45.226;37.908;2023-01-13T08:30:31;12.52;;;7.88;;
74939;SDS011;63505;45.226;37.908;2023-01-13T08:32:57;20.25;;;9.07;;
74939;SDS011;63505;45.226;37.908;2023-01-13T08:35:23;16.20;;;8.43;;
74939;SDS011;63505;45.226;37.908;2023-01-13T08:37:49;20.55;;;8.02;;
74939;SDS011;63505;45.226;37.908;2023-01-13T08:40:16;15.32;;;7.70;;
74939;SDS011;63505;45.226;37.908;2023-01-13T08:42:43;17.42;;;6.72;;
74939;SDS011;63505;45.226;37.908;2023-01-13T08:45:09;17.55;;;8.68;;
74939;SDS011;63505;45.226;37.908;2023-01-13T08:47:35;10.57;;;5.22;;
74939;SDS011;63505;45.226;37.908;2023-01-13T08:50:01;12.50;;;6.38;;
74939;SDS011;63505;45.226;37.908;2023-01-13T08:52:28;14.05;;;7.35;;
74939;SDS011;63505;45.226;37.908;2023-01-13T08:54:54;13.40;;;7.43;;
74939;SDS011;63505;45.226;37.908;2023-01-13T08:57:20;11.38;;;5.70;;
74939;SDS011;63505;45.226;37.908;2023-01-13T08:59:46;18.58;;;6.47;;
74939;SDS011;63505;45.226;37.908;2023-01-13T09:02:13;19.23;;;7.10;;
74939;SDS011;63505;45.226;37.908;2023-01-13T09:04:40;15.77;;;8.15;;
74939;SDS011;63505;45.226;37.908;2023-01-13T09:07:07;18.90;;;6.30;;
74939;SDS011;63505;45.226;37.908;2023-01-13T09:09:33;13.38;;;6.68;;
74939;SDS011;63505;45.226;37.908;2023-01-13T09:11:59;7.63;;;4.25;;
74939;SDS011;63505;45.226;37.908;2023-01-13T09:14:43;15.30;;;6.53;;
74939;SDS011;63505;45.226;37.908;2023-01-13T09:17:09;13.02;;;6.93;;
74939;SDS011;63505;45.226;37.908;2023-01-13T09:19:35;15.63;;;6.38;;
74939;SDS011;63505;45.226;37.908;2023-01-13T09:22:02;13.93;;;7.20;;
74939;SDS011;63505;45.226;37.908;2023-01-13T09:24:28;19.10;;;7.97;;
74939;SDS011;63505;45.226;37.908;2023-01-13T09:26:54;10.60;;;6.30;;
74939;SDS011;63505;45.226;37.908;2023-01-13T09:29:20;16.20;;;8.27;;
74939;SDS011;63505;45.226;37.908;2023-01-13T09:31:46;17.00;;;7.32;;
74939;SDS011;63505;45.226;37.908;2023-01-13T09:34:13;22.20;;;6.10;;
74939;SDS011;63505;45.226;37.908;2023-01-13T09:36:59;6.57;;;4.57;;
74939;SDS011;63505;45.226;37.908;2023-01-13T09:39:25;12.25;;;5.50;;
74939;SDS011;63505;45.226;37.908;2023-01-13T09:41:56;16.63;;;7.63;;
74939;SDS011;63505;45.226;37.908;2023-01-13T09:47:20;15.60;;;8.40;;
74939;SDS011;63505;45.226;37.908;2023-01-13T09:49:57;23.00;;;10.10;;
74939;SDS011;63505;45.226;37.908;2023-01-13T09:52:38;13.13;;;6.15;;
74939;SDS011;63505;45.226;37.908;2023-01-13T09:55:22;12.70;;;6.75;;
74939;SDS011;63505;45.226;37.908;2023-01-13T09:57:54;18.67;;;8.63;;
74939;SDS011;63505;45.226;37.908;2023-01-13T10:00:23;12.90;;;6.50;;
74939;SDS011;63505;45.226;37.908;2023-01-13T10:05:56;14.75;;;8.55;;
74939;SDS011;63505;45.226;37.908;2023-01-13T10:08:38;20.80;;;6.00;;
74939;SDS011;63505;45.226;37.908;2023-01-13T10:11:19;9.05;;;4.32;;
74939;SDS011;63505;45.226;37.908;2023-01-13T10:14:18;16.83;;;8.13;;
74939;SDS011;63505;45.226;37.908;2023-01-13T10:16:50;16.88;;;8.52;;
74939;SDS011;63505;45.226;37.908;2023-01-13T10:19:33;14.68;;;7.38;;
74939;SDS011;63505;45.226;37.908;2023-01-13T10:28:15;10.48;;;5.25;;
74939;SDS011;63505;45.226;37.908;2023-01-13T10:30:44;16.30;;;8.35;;
74939;SDS011;63505;45.226;37.908;2023-01-13T10:33:12;17.50;;;8.52;;
74939;SDS011;63505;45.226;37.908;2023-01-13T10:38:15;17.98;;;7.05;;
74939;SDS011;63505;45.226;37.908;2023-01-13T10:40:47;19.88;;;9.23;;
74939;SDS011;63505;45.226;37.908;2023-01-13T10:43:18;19.88;;;9.23;;
74939;SDS011;63505;45.226;37.908;2023-01-13T10:45:50;38.15;;;11.32;;
74939;SDS011;63505;45.226;37.908;2023-01-13T10:48:22;25.27;;;10.95;;
74939;SDS011;63505;45.226;37.908;2023-01-13T10:50:55;19.25;;;8.73;;
74939;SDS011;63505;45.226;37.908;2023-01-13T10:53:22;18.15;;;10.32;;
74939;SDS011;63505;45.226;37.908;2023-01-13T10:55:59;19.33;;;9.68;;
74939;SDS011;63505;45.226;37.908;2023-01-13T10:58:27;17.77;;;8.65;;
74939;SDS011;63505;45.226;37.908;2023-01-13T11:01:01;18.40;;;9.23;;
74939;SDS011;63505;45.226;37.908;2023-01-13T11:03:35;16.15;;;9.80;;
74939;SDS011;63505;45.226;37.908;2023-01-13T11:06:05;19.48;;;8.48;;
74939;SDS011;63505;45.226;37.908;2023-01-13T11:08:45;18.15;;;9.38;;
74939;SDS011;63505;45.226;37.908;2023-01-13T11:13:58;18.95;;;9.00;;
74939;SDS011;63505;45.226;37.908;2023-01-13T11:16:48;13.23;;;7.25;;
74939;SDS011;63505;45.226;37.908;2023-01-13T11:19:19;16.27;;;8.65;;
74939;SDS011;63505;45.226;37.908;2023-01-13T11:24:21;19.88;;;9.50;;
74939;SDS011;63505;45.226;37.908;2023-01-13T11:27:05;18.90;;;9.60;;
74939;SDS011;63505;45.226;37.908;2023-01-13T11:29:57;12.07;;;5.95;;
74939;SDS011;63505;45.226;37.908;2023-01-13T11:32:51;15.30;;;6.43;;
74939;SDS011;63505;45.226;37.908;2023-01-13T11:35:18;18.73;;;8.55;;
74939;SDS011;63505;45.226;37.908;2023-01-13T11:37:47;16.83;;;9.20;;
74939;SDS011;63505;45.226;37.908;2023-01-13T11:40:24;22.13;;;10.18;;
74939;SDS011;63505;45.226;37.908;2023-01-13T11:43:09;15.45;;;8.60;;
74939;SDS011;63505;45.226;37.908;2023-01-13T11:45:49;20.00;;;8.57;;
74939;SDS011;63505;45.226;37.908;2023-01-13T11:48:21;20.13;;;7.43;;
74939;SDS011;63505;45.226;37.908;2023-01-13T11:50:56;21.73;;;8.07;;
74939;SDS011;63505;45.226;37.908;2023-01-13T11:56:17;16.13;;;8.82;;
74939;SDS011;63505;45.226;37.908;2023-01-13T11:59:23;20.85;;;9.18;;
74939;SDS011;63505;45.226;37.908;2023-01-13T12:21:23;19.10;;;8.48;;
74939;SDS011;63505;45.226;37.908;2023-01-13T12:26:40;16.45;;;9.25;;
74939;SDS011;63505;45.226;37.908;2023-01-13T12:29:14;21.67;;;9.13;;
74939;SDS011;63505;45.226;37.908;2023-01-13T12:31:43;16.80;;;8.50;;
74939;SDS011;63505;45.226;37.908;2023-01-13T12:34:19;15.38;;;8.20;;
74939;SDS011;63505;45.226;37.908;2023-01-13T12:36:59;25.55;;;9.90;;
74939;SDS011;63505;45.226;37.908;2023-01-13T12:42:54;25.40;;;11.27;;
74939;SDS011;63505;45.226;37.908;2023-01-13T12:45:48;19.73;;;9.45;;
74939;SDS011;63505;45.226;37.908;2023-01-13T12:51:31;15.55;;;8.20;;
74939;SDS011;63505;45.226;37.908;2023-01-13T12:54:05;14.63;;;7.47;;
74939;SDS011;63505;45.226;37.908;2023-01-13T12:57:00;20.33;;;8.73;;
74939;SDS011;63505;45.226;37.908;2023-01-13T12:59:30;23.80;;;8.63;;
74939;SDS011;63505;45.226;37.908;2023-01-13T13:07:08;24.13;;;10.40;;
74939;SDS011;63505;45.226;37.908;2023-01-13T13:09:57;24.80;;;12.43;;
74939;SDS011;63505;45.226;37.908;2023-01-13T13:15:20;30.30;;;13.27;;
74939;SDS011;63505;45.226;37.908;2023-01-13T13:21:25;26.75;;;13.82;;
74939;SDS011;63505;45.226;37.908;2023-01-13T13:23:44;28.73;;;14.95;;
74939;SDS011;63505;45.226;37.908;2023-01-13T13:40:29;42.70;;;17.40;;
74939;SDS011;63505;45.226;37.908;2023-01-13T13:43:21;40.22;;;17.52;;
74939;SDS011;63505;45.226;37.908;2023-01-13T13:46:22;47.58;;;17.20;;
74939;SDS011;63505;45.226;37.908;2023-01-13T13:49:06;46.10;;;17.08;;
74939;SDS011;63505;45.226;37.908;2023-01-13T13:51:34;37.60;;;17.50;;
74939;SDS011;63505;45.226;37.908;2023-01-13T13:54:10;46.00;;;17.50;;
74939;SDS011;63505;45.226;37.908;2023-01-13T13:56:42;41.85;;;18.63;;
74939;SDS011;63505;45.226;37.908;2023-01-13T13:59:14;33.35;;;16.40;;
74939;SDS011;63505;45.226;37.908;2023-01-13T14:01:49;65.93;;;27.23;;
74939;SDS011;63505;45.226;37.908;2023-01-13T14:04:25;75.28;;;29.95;;
74939;SDS011;63505;45.226;37.908;2023-01-13T14:06:57;74.82;;;32.15;;
74939;SDS011;63505;45.226;37.908;2023-01-13T14:09:43;58.33;;;22.33;;
74939;SDS011;63505;45.226;37.908;2023-01-13T14:12:16;75.18;;;34.83;;
74939;SDS011;63505;45.226;37.908;2023-01-13T14:14:49;70.22;;;30.08;;
74939;SDS011;63505;45.226;37.908;2023-01-13T14:17:25;110.20;;;47.38;;
74939;SDS011;63505;45.226;37.908;2023-01-13T14:20:03;87.97;;;37.85;;
74939;SDS011;63505;45.226;37.908;2023-01-13T14:22:37;50.42;;;25.00;;
74939;SDS011;63505;45.226;37.908;2023-01-13T14:25:17;80.63;;;29.75;;
74939;SDS011;63505;45.226;37.908;2023-01-13T14:27:54;62.17;;;26.45;;
74939;SDS011;63505;45.226;37.908;2023-01-13T14:30:24;70.47;;;31.50;;
74939;SDS011;63505;45.226;37.908;2023-01-13T14:32:52;90.63;;;35.88;;
74939;SDS011;63505;45.226;37.908;2023-01-13T14:35:18;91.03;;;35.42;;
74939;SDS011;63505;45.226;37.908;2023-01-13T14:37:44;75.03;;;37.05;;
74939;SDS011;63505;45.226;37.908;2023-01-13T14:42:57;74.78;;;33.10;;
74939;SDS011;63505;45.226;37.908;2023-01-13T14:45:24;62.45;;;30.95;;
74939;SDS011;63505;45.226;37.908;2023-01-13T14:47:54;55.92;;;26.45;;
74939;SDS011;63505;45.226;37.908;2023-01-13T14:50:20;77.65;;;34.45;;
74939;SDS011;63505;45.226;37.908;2023-01-13T14:52:54;83.95;;;41.40;;
74939;SDS011;63505;45.226;37.908;2023-01-13T14:55:23;130.43;;;53.65;;
74939;SDS011;63505;45.226;37.908;2023-01-13T15:00:46;103.88;;;42.88;;
74939;SDS011;63505;45.226;37.908;2023-01-13T15:03:13;104.10;;;43.97;;
74939;SDS011;63505;45.226;37.908;2023-01-13T15:05:42;103.47;;;43.33;;
74939;SDS011;63505;45.226;37.908;2023-01-13T15:10:48;108.63;;;41.70;;
74939;SDS011;63505;45.226;37.908;2023-01-13T15:15:51;95.75;;;44.13;;
74939;SDS011;63505;45.226;37.908;2023-01-13T15:18:19;109.63;;;45.63;;
74939;SDS011;63505;45.226;37.908;2023-01-13T15:20:45;108.53;;;43.97;;
74939;SDS011;63505;45.226;37.908;2023-01-13T15:23:11;97.40;;;41.60;;
74939;SDS011;63505;45.226;37.908;2023-01-13T15:25:38;104.05;;;43.10;;
74939;SDS011;63505;45.226;37.908;2023-01-13T15:28:06;72.00;;;33.60;;
74939;SDS011;63505;45.226;37.908;2023-01-13T15:30:40;84.18;;;37.47;;
74939;SDS011;63505;45.226;37.908;2023-01-13T15:33:07;85.97;;;40.88;;
74939;SDS011;63505;45.226;37.908;2023-01-13T15:35:36;92.03;;;40.80;;
74939;SDS011;63505;45.226;37.908;2023-01-13T15:38:09;98.85;;;42.13;;
74939;SDS011;63505;45.226;37.908;2023-01-13T15:40:36;93.18;;;41.65;;
74939;SDS011;63505;45.226;37.908;2023-01-13T15:43:02;90.57;;;41.45;;
74939;SDS011;63505;45.226;37.908;2023-01-13T15:45:47;81.22;;;39.30;;
74939;SDS011;63505;45.226;37.908;2023-01-13T15:48:31;99.43;;;44.83;;
74939;SDS011;63505;45.226;37.908;2023-01-13T15:50:58;110.30;;;40.22;;
74939;SDS011;63505;45.226;37.908;2023-01-13T15:53:24;93.82;;;40.47;;
74939;SDS011;63505;45.226;37.908;2023-01-13T15:55:52;92.75;;;39.90;;
74939;SDS011;63505;45.226;37.908;2023-01-13T15:58:23;92.13;;;41.20;;
74939;SDS011;63505;45.226;37.908;2023-01-13T16:00:50;87.22;;;39.17;;
74939;SDS011;63505;45.226;37.908;2023-01-13T16:03:16;87.60;;;41.35;;
74939;SDS011;63505;45.226;37.908;2023-01-13T16:05:42;79.38;;;39.83;;
74939;SDS011;63505;45.226;37.908;2023-01-13T16:10:45;102.57;;;39.88;;
74939;SDS011;63505;45.226;37.908;2023-01-13T16:13:11;89.03;;;36.63;;
74939;SDS011;63505;45.226;37.908;2023-01-13T16:15:42;101.13;;;38.03;;
74939;SDS011;63505;45.226;37.908;2023-01-13T16:18:17;91.18;;;39.00;;
74939;SDS011;63505;45.226;37.908;2023-01-13T16:20:45;89.45;;;36.60;;
74939;SDS011;63505;45.226;37.908;2023-01-13T16:23:11;80.95;;;37.38;;
74939;SDS011;63505;45.226;37.908;2023-01-13T16:25:38;70.57;;;33.78;;
74939;SDS011;63505;45.226;37.908;2023-01-13T16:28:05;85.60;;;36.13;;
74939;SDS011;63505;45.226;37.908;2023-01-13T16:30:33;85.57;;;36.17;;
74939;SDS011;63505;45.226;37.908;2023-01-13T16:33:01;88.25;;;36.33;;
74939;SDS011;63505;45.226;37.908;2023-01-13T16:35:27;74.68;;;34.28;;
74939;SDS011;63505;45.226;37.908;2023-01-13T16:37:56;78.85;;;34.85;;
74939;SDS011;63505;45.226;37.908;2023-01-13T16:40:28;87.43;;;34.58;;
74939;SDS011;63505;45.226;37.908;2023-01-13T16:42:58;71.18;;;32.85;;
74939;SDS011;63505;45.226;37.908;2023-01-13T16:45:28;76.35;;;34.75;;
74939;SDS011;63505;45.226;37.908;2023-01-13T16:47:55;81.57;;;35.80;;
74939;SDS011;63505;45.226;37.908;2023-01-13T16:50:38;79.75;;;34.78;;
74939;SDS011;63505;45.226;37.908;2023-01-13T16:53:05;73.80;;;34.00;;
74939;SDS011;63505;45.226;37.908;2023-01-13T16:55:36;75.32;;;34.53;;
74939;SDS011;63505;45.226;37.908;2023-01-13T16:58:04;65.78;;;32.10;;
74939;SDS011;63505;45.226;37.908;2023-01-13T17:00:30;64.30;;;30.75;;
74939;SDS011;63505;45.226;37.908;2023-01-13T17:02:56;86.38;;;32.13;;
74939;SDS011;63505;45.226;37.908;2023-01-13T17:05:27;79.43;;;32.35;;
74939;SDS011;63505;45.226;37.908;2023-01-13T17:07:53;67.20;;;30.33;;